Time;durP1;ratioP1;P1;durP2;ratioP2;P2;SDS_P1;SDS_P2;PMS_P1;PMS_P2;Temp;Humidity;BMP_temperature;BMP_pressure;BME280_temperature;BME280_humidity;BME280_pressure;Samples;Min_cycle;Max_cycle;Signal;HPM_P1;HPM_P2
2023/11/30 00:02:03;;;;;;;22.50;13.32;;;;;;;;;;10324136;28;20381;-76
2023/11/30 00:07:06;;;;;;;29.17;14.90;;;;;;;;;;10337955;28;20041;-80
2023/11/30 00:12:06;;;;;;;32.90;17.55;;;;;;;;;;10327022;28;20151;-75
2023/11/30 00:17:06;;;;;;;22.23;13.13;;;;;;;;;;10306716;28;20512;-75
2023/11/30 00:22:07;;;;;;;29.08;14.65;;;;;;;;;;10324680;28;20046;-75
2023/11/30 00:27:07;;;;;;;25.83;12.80;;;;;;;;;;10299255;28;20118;-79
2023/11/30 00:32:07;;;;;;;26.35;13.30;;;;;;;;;;10284958;28;20048;-76
2023/11/30 00:37:08;;;;;;;25.88;12.77;;;;;;;;;;10321973;28;20096;-80
2023/11/30 00:42:09;;;;;;;26.05;13.65;;;;;;;;;;10324206;28;20051;-79
2023/11/30 00:47:10;;;;;;;28.17;14.57;;;;;;;;;;10317584;28;20029;-76
2023/11/30 00:52:10;;;;;;;25.20;15.50;;;;;;;;;;10303744;28;20050;-78
2023/11/30 00:57:10;;;;;;;27.15;15.77;;;;;;;;;;10304670;28;20026;-74
2023/11/30 01:02:10;;;;;;;32.17;15.25;;;;;;;;;;10321381;28;20496;-76
2023/11/30 01:07:11;;;;;;;23.70;13.27;;;;;;;;;;10322636;28;20469;-75
2023/11/30 01:12:11;;;;;;;18.30;11.63;;;;;;;;;;10320907;28;20125;-80
2023/11/30 01:17:11;;;;;;;23.42;13.88;;;;;;;;;;10305152;28;20109;-81
2023/11/30 01:22:12;;;;;;;26.83;14.25;;;;;;;;;;10322050;28;20477;-76
2023/11/30 01:27:12;;;;;;;28.25;15.88;;;;;;;;;;10284259;28;20077;-78
2023/11/30 01:32:13;;;;;;;32.95;14.75;;;;;;;;;;10294319;28;20030;-75
2023/11/30 01:37:13;;;;;;;23.48;13.10;;;;;;;;;;10297545;28;20046;-79
2023/11/30 01:42:14;;;;;;;26.50;13.88;;;;;;;;;;10304801;28;20057;-77
2023/11/30 01:47:15;;;;;;;25.27;15.15;;;;;;;;;;10320299;28;20022;-75
2023/11/30 01:52:15;;;;;;;28.15;15.55;;;;;;;;;;10304174;28;20061;-75
2023/11/30 01:57:16;;;;;;;23.00;13.67;;;;;;;;;;10319745;28;20030;-75
2023/11/30 02:02:16;;;;;;;27.90;14.73;;;;;;;;;;10319566;28;20846;-78
2023/11/30 02:07:16;;;;;;;28.50;13.18;;;;;;;;;;10325898;28;20443;-75
2023/11/30 02:12:16;;;;;;;22.15;13.88;;;;;;;;;;10327998;28;20091;-75
2023/11/30 02:17:17;;;;;;;27.93;16.43;;;;;;;;;;10327377;28;20030;-77
2023/11/30 02:22:17;;;;;;;26.25;15.63;;;;;;;;;;10311604;28;20390;-79
2023/11/30 02:27:17;;;;;;;34.00;16.17;;;;;;;;;;10328632;28;20026;-77
2023/11/30 02:32:17;;;;;;;33.20;18.23;;;;;;;;;;10340532;28;20038;-80
2023/11/30 02:37:18;;;;;;;29.83;18.17;;;;;;;;;;10329203;28;20034;-75
2023/11/30 02:42:19;;;;;;;38.75;21.77;;;;;;;;;;10326657;28;20058;-76
2023/11/30 02:47:19;;;;;;;34.92;19.25;;;;;;;;;;10310331;28;20038;-76
2023/11/30 02:52:19;;;;;;;41.35;20.20;;;;;;;;;;10310131;28;20069;-75
2023/11/30 02:57:19;;;;;;;38.67;19.53;;;;;;;;;;10310264;28;20475;-79
2023/11/30 03:02:20;;;;;;;36.55;20.95;;;;;;;;;;10326317;28;20568;-74
2023/11/30 03:07:20;;;;;;;38.92;20.77;;;;;;;;;;10327330;28;20029;-75
2023/11/30 03:12:20;;;;;;;29.60;14.10;;;;;;;;;;10325526;28;20052;-78
2023/11/30 03:17:20;;;;;;;25.25;13.57;;;;;;;;;;10323862;28;20109;-75
2023/11/30 03:22:21;;;;;;;20.43;11.67;;;;;;;;;;10325850;28;20149;-75
2023/11/30 03:27:21;;;;;;;20.05;12.57;;;;;;;;;;10326402;28;20046;-76
2023/11/30 03:32:21;;;;;;;23.45;13.45;;;;;;;;;;10325149;28;20034;-77
2023/11/30 03:37:21;;;;;;;22.00;14.20;;;;;;;;;;10313052;28;20027;-79
2023/11/30 03:42:21;;;;;;;26.10;14.57;;;;;;;;;;10318359;28;20432;-75
2023/11/30 03:47:22;;;;;;;25.63;13.15;;;;;;;;;;10328320;28;20026;-75
2023/11/30 03:52:22;;;;;;;25.05;13.00;;;;;;;;;;10334366;28;20065;-75
2023/11/30 03:57:22;;;;;;;359.17;33.45;;;;;;;;;;10332176;28;20023;-74
2023/11/30 04:02:24;;;;;;;28.27;14.82;;;;;;;;;;10318060;28;20386;-79
2023/11/30 04:07:29;;;;;;;28.33;13.80;;;;;;;;;;10321148;28;20429;-77
2023/11/30 04:12:29;;;;;;;26.42;15.30;;;;;;;;;;10324715;28;20481;-79
2023/11/30 04:17:30;;;;;;;27.23;15.15;;;;;;;;;;10351083;28;20102;-77
2023/11/30 04:22:30;;;;;;;36.25;16.38;;;;;;;;;;10305232;28;20113;-75
2023/11/30 04:27:30;;;;;;;29.55;14.45;;;;;;;;;;10306798;28;20018;-74
2023/11/30 04:32:31;;;;;;;31.23;14.80;;;;;;;;;;10324521;28;20033;-75
2023/11/30 04:37:31;;;;;;;31.83;15.90;;;;;;;;;;10312407;28;20078;-75
2023/11/30 04:42:31;;;;;;;33.85;17.67;;;;;;;;;;10265936;28;20065;-74
2023/11/30 04:47:31;;;;;;;36.00;18.27;;;;;;;;;;10321770;28;20023;-73
2023/11/30 04:52:32;;;;;;;42.58;20.55;;;;;;;;;;10321839;28;20092;-75
2023/11/30 04:57:33;;;;;;;39.65;20.00;;;;;;;;;;10322785;28;20484;-73
2023/11/30 05:02:35;;;;;;;40.58;21.73;;;;;;;;;;10342085;28;20483;-79
2023/11/30 05:07:35;;;;;;;38.15;20.60;;;;;;;;;;10345949;28;20033;-75
2023/11/30 05:12:36;;;;;;;38.60;21.50;;;;;;;;;;10308551;28;20031;-77
2023/11/30 05:17:36;;;;;;;37.15;20.27;;;;;;;;;;10317825;28;20030;-76
2023/11/30 05:22:36;;;;;;;59.80;27.93;;;;;;;;;;10320625;28;20618;-77
2023/11/30 05:27:37;;;;;;;56.10;27.35;;;;;;;;;;10318442;28;20026;-77
2023/11/30 05:32:37;;;;;;;71.35;30.52;;;;;;;;;;10318820;28;20037;-75
2023/11/30 05:37:37;;;;;;;65.10;32.08;;;;;;;;;;10317137;28;20022;-77
2023/11/30 05:42:38;;;;;;;57.03;27.55;;;;;;;;;;10317959;28;20160;-76
2023/11/30 05:47:39;;;;;;;61.92;27.52;;;;;;;;;;10319574;28;20442;-75
2023/11/30 05:52:39;;;;;;;56.30;27.25;;;;;;;;;;10319451;28;20038;-78
2023/11/30 05:57:39;;;;;;;57.00;26.55;;;;;;;;;;10319325;28;20504;-80
2023/11/30 06:02:40;;;;;;;53.92;25.75;;;;;;;;;;10322116;28;20177;-79
2023/11/30 06:07:44;;;;;;;57.65;27.30;;;;;;;;;;10315816;28;20029;-75
2023/11/30 06:12:44;;;;;;;51.50;26.70;;;;;;;;;;10305260;28;20619;-77
2023/11/30 06:17:45;;;;;;;56.97;27.30;;;;;;;;;;10315199;28;20122;-76
2023/11/30 06:22:45;;;;;;;52.83;24.90;;;;;;;;;;10315441;28;20049;-76
2023/11/30 06:27:46;;;;;;;49.78;24.13;;;;;;;;;;10314900;28;20097;-80
2023/11/30 06:32:46;;;;;;;48.15;24.55;;;;;;;;;;10316218;28;20560;-77
2023/11/30 06:37:46;;;;;;;45.10;21.70;;;;;;;;;;10302003;28;20021;-76
2023/11/30 06:42:46;;;;;;;46.35;24.15;;;;;;;;;;10318167;28;20046;-75
2023/11/30 06:47:46;;;;;;;51.88;24.35;;;;;;;;;;10320122;28;20050;-75
2023/11/30 06:52:47;;;;;;;50.58;24.25;;;;;;;;;;10323683;28;20030;-79
2023/11/30 06:57:47;;;;;;;58.40;26.48;;;;;;;;;;10326949;28;20026;-76
2023/11/30 07:02:47;;;;;;;46.53;24.08;;;;;;;;;;10325514;28;20408;-76
2023/11/30 07:07:48;;;;;;;45.20;22.77;;;;;;;;;;10327176;28;20041;-72
2023/11/30 07:12:48;;;;;;;50.88;23.98;;;;;;;;;;10309363;28;20117;-77
2023/11/30 07:17:50;;;;;;;47.95;24.80;;;;;;;;;;10325226;28;20026;-78
2023/11/30 07:22:50;;;;;;;50.10;24.58;;;;;;;;;;10309032;28;20117;-77
2023/11/30 07:27:53;;;;;;;51.15;24.75;;;;;;;;;;10326249;28;20491;-75
2023/11/30 07:32:53;;;;;;;51.90;26.60;;;;;;;;;;10324645;28;20033;-76
2023/11/30 07:37:54;;;;;;;46.72;25.88;;;;;;;;;;10307880;28;20026;-75
2023/11/30 07:42:54;;;;;;;80.03;27.85;;;;;;;;;;10324211;28;20108;-80
2023/11/30 07:47:56;;;;;;;48.00;21.77;;;;;;;;;;10312644;28;20496;-74
2023/11/30 07:52:56;;;;;;;47.13;23.05;;;;;;;;;;10294996;28;20278;-78
2023/11/30 07:57:57;;;;;;;44.80;23.27;;;;;;;;;;10324050;28;20030;-76
2023/11/30 08:02:57;;;;;;;44.03;23.70;;;;;;;;;;10306676;28;20062;-76
2023/11/30 08:07:57;;;;;;;47.85;23.75;;;;;;;;;;10323474;28;20370;-77
2023/11/30 08:12:57;;;;;;;53.03;26.10;;;;;;;;;;10323104;28;20046;-78
2023/11/30 08:17:57;;;;;;;54.85;26.35;;;;;;;;;;10322803;28;20236;-80
2023/11/30 08:22:58;;;;;;;38.25;19.35;;;;;;;;;;10322572;28;20512;-75
2023/11/30 08:27:58;;;;;;;43.75;19.73;;;;;;;;;;10323136;28;20029;-75
2023/11/30 08:32:58;;;;;;;28.88;14.20;;;;;;;;;;10321121;28;20023;-77
2023/11/30 08:37:59;;;;;;;26.03;14.43;;;;;;;;;;10302784;28;20491;-75
2023/11/30 08:43:00;;;;;;;25.65;13.35;;;;;;;;;;10306498;28;20054;-77
2023/11/30 08:48:00;;;;;;;30.52;15.98;;;;;;;;;;10304785;28;20108;-75
2023/11/30 08:53:00;;;;;;;30.38;14.73;;;;;;;;;;10322482;28;20177;-76
2023/11/30 08:58:00;;;;;;;30.77;16.30;;;;;;;;;;10308769;28;20867;-75
2023/11/30 09:03:00;;;;;;;37.63;18.65;;;;;;;;;;10294458;28;20125;-81
2023/11/30 09:08:01;;;;;;;44.33;22.17;;;;;;;;;;10321756;28;20176;-75
2023/11/30 09:13:03;;;;;;;69.70;30.83;;;;;;;;;;10321897;28;20101;-80
2023/11/30 09:18:03;;;;;;;56.83;30.08;;;;;;;;;;10303408;28;20416;-80
2023/11/30 09:23:06;;;;;;;68.90;29.73;;;;;;;;;;10304528;28;20026;-82
2023/11/30 09:28:07;;;;;;;75.00;34.80;;;;;;;;;;10320981;28;20833;-76
2023/11/30 09:33:08;;;;;;;72.13;35.10;;;;;;;;;;10323385;28;20034;-79
2023/11/30 09:38:09;;;;;;;69.47;31.15;;;;;;;;;;10321182;28;20010;-80
2023/11/30 09:43:15;;;;;;;68.25;31.35;;;;;;;;;;10306274;28;20571;-81
2023/11/30 09:48:15;;;;;;;73.28;33.50;;;;;;;;;;10304563;28;20033;-79
2023/11/30 09:53:15;;;;;;;73.22;34.40;;;;;;;;;;10324059;28;20432;-76
2023/11/30 09:58:16;;;;;;;79.68;37.20;;;;;;;;;;10304972;28;20022;-77
2023/11/30 10:03:16;;;;;;;81.90;37.20;;;;;;;;;;10321977;28;20019;-75
2023/11/30 10:08:17;;;;;;;76.57;35.58;;;;;;;;;;10295025;28;20019;-76
2023/11/30 10:13:17;;;;;;;74.00;35.67;;;;;;;;;;10290971;28;20031;-80
2023/11/30 10:18:17;;;;;;;80.85;34.63;;;;;;;;;;10318342;28;20037;-74
2023/11/30 10:23:18;;;;;;;77.65;36.30;;;;;;;;;;10323904;28;20473;-80
2023/11/30 10:28:20;;;;;;;71.90;33.20;;;;;;;;;;10310167;28;20033;-80
2023/11/30 10:33:22;;;;;;;79.72;36.42;;;;;;;;;;10328518;28;20014;-77
2023/11/30 10:38:26;;;;;;;75.05;32.92;;;;;;;;;;10311936;28;20027;-79
2023/11/30 10:43:28;;;;;;;69.57;31.60;;;;;;;;;;10295130;28;20061;-77
2023/11/30 10:48:29;;;;;;;78.65;34.28;;;;;;;;;;10326639;28;20057;-75
2023/11/30 10:53:35;;;;;;;70.93;31.20;;;;;;;;;;10326552;28;20642;-77
2023/11/30 10:58:35;;;;;;;70.78;31.67;;;;;;;;;;10311764;28;20093;-77
2023/11/30 11:03:36;;;;;;;68.18;32.67;;;;;;;;;;10309842;28;20072;-77
2023/11/30 11:08:37;;;;;;;62.30;31.02;;;;;;;;;;10328416;28;20018;-80
2023/11/30 11:13:44;;;;;;;63.33;28.63;;;;;;;;;;10326874;28;20030;-77
2023/11/30 11:18:44;;;;;;;58.13;28.20;;;;;;;;;;10309295;28;20056;-76
2023/11/30 11:23:44;;;;;;;65.32;31.33;;;;;;;;;;10326674;28;20033;-80
2023/11/30 11:28:46;;;;;;;54.53;28.17;;;;;;;;;;10329920;28;20018;-78
2023/11/30 11:33:50;;;;;;;50.67;23.70;;;;;;;;;;10330413;28;20504;-76
2023/11/30 11:38:52;;;;;;;43.10;22.38;;;;;;;;;;10334106;28;20049;-79
2023/11/30 11:43:52;;;;;;;47.90;23.55;;;;;;;;;;10326314;28;20054;-78
2023/11/30 11:48:53;;;;;;;50.55;26.13;;;;;;;;;;10328363;28;20030;-81
2023/11/30 11:53:53;;;;;;;55.53;28.33;;;;;;;;;;10317201;28;20464;-76
2023/11/30 11:58:53;;;;;;;54.13;25.90;;;;;;;;;;10333979;28;20021;-81
2023/11/30 12:03:54;;;;;;;39.38;21.15;;;;;;;;;;10334081;28;20064;-76
2023/11/30 12:08:54;;;;;;;46.92;21.52;;;;;;;;;;10340827;28;20477;-77
2023/11/30 12:13:54;;;;;;;40.72;23.40;;;;;;;;;;10324547;28;20026;-76
2023/11/30 12:18:55;;;;;;;45.05;23.98;;;;;;;;;;10293770;28;20544;-75
2023/11/30 12:23:55;;;;;;;47.25;22.67;;;;;;;;;;10306559;28;20117;-76
2023/11/30 12:28:57;;;;;;;47.07;24.87;;;;;;;;;;10323774;28;20026;-76
2023/11/30 12:33:58;;;;;;;64.25;29.83;;;;;;;;;;10322191;28;20962;-76
2023/11/30 12:38:58;;;;;;;61.50;29.50;;;;;;;;;;10321751;28;20112;-80
2023/11/30 12:44:00;;;;;;;62.08;29.38;;;;;;;;;;10322385;28;20046;-77
2023/11/30 12:49:00;;;;;;;56.53;27.90;;;;;;;;;;10308986;28;20030;-76
2023/11/30 12:54:02;;;;;;;73.70;30.83;;;;;;;;;;10321745;28;20032;-79
2023/11/30 12:59:02;;;;;;;60.63;29.40;;;;;;;;;;10340972;28;20025;-76
2023/11/30 13:04:02;;;;;;;62.08;30.80;;;;;;;;;;10349410;28;20026;-76
2023/11/30 13:09:03;;;;;;;61.72;29.58;;;;;;;;;;10305582;28;20026;-81
2023/11/30 13:14:04;;;;;;;65.97;31.52;;;;;;;;;;10305841;28;20030;-79
2023/11/30 13:19:04;;;;;;;69.40;33.50;;;;;;;;;;10319992;28;20088;-75
2023/11/30 13:24:04;;;;;;;62.60;29.43;;;;;;;;;;10303900;28;20053;-75
2023/11/30 13:29:04;;;;;;;64.20;30.87;;;;;;;;;;10305103;28;20469;-84
2023/11/30 13:34:05;;;;;;;60.88;30.67;;;;;;;;;;10303752;28;20463;-83
2023/11/30 13:39:05;;;;;;;69.50;32.90;;;;;;;;;;10304761;28;20076;-76
2023/11/30 13:44:06;;;;;;;69.68;33.50;;;;;;;;;;10303854;28;20046;-76
2023/11/30 13:49:07;;;;;;;68.32;33.47;;;;;;;;;;10319987;28;20060;-80
2023/11/30 13:54:07;;;;;;;70.78;32.88;;;;;;;;;;10304754;28;20113;-75
2023/11/30 13:59:08;;;;;;;70.40;34.58;;;;;;;;;;10329320;28;20039;-84
2023/11/30 14:04:09;;;;;;;79.22;38.03;;;;;;;;;;10299636;28;20030;-76
2023/11/30 14:09:13;;;;;;;83.43;38.10;;;;;;;;;;10322150;28;20487;-79
2023/11/30 14:14:13;;;;;;;79.97;39.03;;;;;;;;;;10304564;28;20121;-79
2023/11/30 14:19:14;;;;;;;81.80;39.38;;;;;;;;;;10320759;28;20028;-80
2023/11/30 14:24:15;;;;;;;86.88;39.00;;;;;;;;;;10318876;28;20033;-74
2023/11/30 14:29:15;;;;;;;83.93;40.63;;;;;;;;;;10318153;28;20022;-75
2023/11/30 14:34:16;;;;;;;95.85;44.90;;;;;;;;;;10317114;28;20026;-80
2023/11/30 14:39:16;;;;;;;99.35;47.47;;;;;;;;;;10319200;28;20448;-76
2023/11/30 14:44:16;;;;;;;96.47;44.03;;;;;;;;;;10314987;28;20058;-75
2023/11/30 14:49:17;;;;;;;104.93;44.50;;;;;;;;;;10315502;28;20045;-76
2023/11/30 14:54:17;;;;;;;94.60;41.35;;;;;;;;;;10315253;28;20041;-76
2023/11/30 14:59:17;;;;;;;89.75;41.22;;;;;;;;;;10313077;28;20027;-79
2023/11/30 15:04:18;;;;;;;97.15;43.53;;;;;;;;;;10310536;28;20827;-81
2023/11/30 15:09:19;;;;;;;99.93;42.50;;;;;;;;;;10320081;28;20029;-80
2023/11/30 15:14:19;;;;;;;105.27;44.17;;;;;;;;;;10321866;28;20021;-79
2023/11/30 15:19:19;;;;;;;113.53;46.97;;;;;;;;;;10309903;28;20030;-80
2023/11/30 15:24:21;;;;;;;96.43;45.60;;;;;;;;;;10326003;28;20023;-80
2023/11/30 15:29:21;;;;;;;112.38;47.70;;;;;;;;;;10325913;28;20125;-78
2023/11/30 15:34:21;;;;;;;98.63;46.77;;;;;;;;;;10324708;28;20386;-79
2023/11/30 15:39:23;;;;;;;120.90;55.78;;;;;;;;;;10323851;28;20280;-74
2023/11/30 15:44:26;;;;;;;118.47;53.35;;;;;;;;;;10326528;28;20054;-81
2023/11/30 15:49:27;;;;;;;115.00;50.42;;;;;;;;;;10323871;28;20057;-77
2023/11/30 15:54:27;;;;;;;108.95;47.90;;;;;;;;;;10307356;28;20039;-76
2023/11/30 15:59:28;;;;;;;113.70;50.50;;;;;;;;;;10323302;28;20030;-76
2023/11/30 16:04:28;;;;;;;121.45;54.53;;;;;;;;;;10323414;28;20050;-76
2023/11/30 16:09:30;;;;;;;131.73;56.88;;;;;;;;;;10326469;28;20029;-76
2023/11/30 16:14:33;;;;;;;125.63;54.80;;;;;;;;;;10323159;28;20022;-76
2023/11/30 16:19:35;;;;;;;117.43;56.42;;;;;;;;;;10325023;28;20030;-81
2023/11/30 16:24:35;;;;;;;132.70;56.13;;;;;;;;;;10307859;28;20031;-75
2023/11/30 16:29:35;;;;;;;122.60;57.28;;;;;;;;;;10321818;28;20444;-75
2023/11/30 16:34:37;;;;;;;123.40;54.72;;;;;;;;;;10322775;28;20631;-80
2023/11/30 16:39:37;;;;;;;126.43;56.20;;;;;;;;;;10323727;28;20042;-77
2023/11/30 16:44:37;;;;;;;113.70;49.88;;;;;;;;;;10322559;28;20050;-76
2023/11/30 16:49:38;;;;;;;120.95;51.90;;;;;;;;;;10321819;28;20049;-76
2023/11/30 16:54:38;;;;;;;125.63;52.10;;;;;;;;;;10322271;28;20032;-75
2023/11/30 16:59:38;;;;;;;134.85;58.67;;;;;;;;;;10320795;28;20026;-76
2023/11/30 17:04:40;;;;;;;126.63;55.22;;;;;;;;;;10322567;28;20053;-81
2023/11/30 17:09:40;;;;;;;128.27;53.90;;;;;;;;;;10304433;28;20042;-75
2023/11/30 17:14:41;;;;;;;119.10;50.72;;;;;;;;;;10321835;28;20037;-75
2023/11/30 17:19:41;;;;;;;131.98;55.50;;;;;;;;;;10305431;28;20034;-78
2023/11/30 17:24:41;;;;;;;127.50;54.67;;;;;;;;;;10322235;28;20386;-78
2023/11/30 17:29:41;;;;;;;114.72;51.88;;;;;;;;;;10469856;22;20129;-72
2023/11/30 17:34:42;;;;;;;119.57;53.15;;;;;;;;;;10456040;28;20020;-75
2023/11/30 17:39:43;;;;;;;133.18;55.63;;;;;;;;;;10457335;28;20267;-73
2023/11/30 17:44:43;;;;;;;126.05;56.95;;;;;;;;;;10456444;28;20020;-72
2023/11/30 17:49:43;;;;;;;125.85;59.28;;;;;;;;;;10455306;28;20051;-71
2023/11/30 17:54:44;;;;;;;134.23;61.20;;;;;;;;;;10433164;28;20021;-73
2023/11/30 17:59:44;;;;;;;122.53;55.42;;;;;;;;;;10437501;28;20027;-73
2023/11/30 18:04:44;;;;;;;139.73;59.78;;;;;;;;;;10432988;28;20028;-72
2023/11/30 18:09:45;;;;;;;151.90;69.03;;;;;;;;;;10434383;28;20260;-71
2023/11/30 18:14:47;;;;;;;149.10;66.75;;;;;;;;;;10434816;28;20136;-72
2023/11/30 18:19:47;;;;;;;145.30;67.05;;;;;;;;;;10426167;28;20029;-71
2023/11/30 18:24:47;;;;;;;137.30;59.80;;;;;;;;;;10435783;28;20319;-72
2023/11/30 18:29:48;;;;;;;140.27;59.97;;;;;;;;;;10430898;28;20259;-71
2023/11/30 18:34:48;;;;;;;124.22;58.53;;;;;;;;;;10431867;28;20040;-71
2023/11/30 18:39:48;;;;;;;129.48;60.38;;;;;;;;;;10429780;28;20033;-71
2023/11/30 18:44:48;;;;;;;127.85;58.17;;;;;;;;;;10438373;28;20158;-72
2023/11/30 18:49:49;;;;;;;135.85;59.05;;;;;;;;;;10447055;28;20086;-71
2023/11/30 18:54:53;;;;;;;124.88;55.28;;;;;;;;;;10444103;28;20063;-73
2023/11/30 18:59:53;;;;;;;122.07;50.80;;;;;;;;;;10430394;28;20048;-73
2023/11/30 19:04:55;;;;;;;107.57;47.83;;;;;;;;;;10421593;28;20059;-73
2023/11/30 19:09:55;;;;;;;108.57;46.13;;;;;;;;;;10444846;28;20347;-73
2023/11/30 19:14:55;;;;;;;111.60;47.35;;;;;;;;;;10444031;28;20033;-73
2023/11/30 19:19:56;;;;;;;108.83;48.53;;;;;;;;;;10440144;28;20238;-72
2023/11/30 19:24:56;;;;;;;95.95;46.30;;;;;;;;;;10443326;28;20029;-74
2023/11/30 19:29:56;;;;;;;95.90;44.50;;;;;;;;;;10429735;28;20099;-71
2023/11/30 19:34:56;;;;;;;94.18;43.20;;;;;;;;;;10441345;28;20025;-74
2023/11/30 19:39:58;;;;;;;91.22;41.03;;;;;;;;;;10444082;28;20063;-75
2023/11/30 19:44:58;;;;;;;93.78;41.90;;;;;;;;;;10435274;28;20047;-76
2023/11/30 19:49:59;;;;;;;84.93;38.15;;;;;;;;;;10446296;28;20012;-73
2023/11/30 19:55:00;;;;;;;89.57;40.97;;;;;;;;;;10432157;28;20033;-72
2023/11/30 20:00:00;;;;;;;80.60;38.63;;;;;;;;;;10440945;28;20319;-72
2023/11/30 20:05:01;;;;;;;87.82;36.08;;;;;;;;;;10425346;28;20052;-73
2023/11/30 20:10:01;;;;;;;88.80;40.77;;;;;;;;;;10438709;28;20096;-72
2023/11/30 20:15:02;;;;;;;87.55;40.25;;;;;;;;;;10436262;28;20017;-73
2023/11/30 20:20:02;;;;;;;89.05;41.13;;;;;;;;;;10449697;28;20070;-74
2023/11/30 20:25:03;;;;;;;86.40;40.97;;;;;;;;;;10458135;28;20044;-74
2023/11/30 20:30:04;;;;;;;83.07;39.67;;;;;;;;;;10441382;28;20040;-74
2023/11/30 20:35:04;;;;;;;81.38;37.28;;;;;;;;;;10458025;28;20096;-74
2023/11/30 20:40:05;;;;;;;74.13;36.00;;;;;;;;;;10456936;28;20059;-75
2023/11/30 20:45:06;;;;;;;72.50;35.20;;;;;;;;;;10458646;28;20044;-74
2023/11/30 20:50:06;;;;;;;70.05;36.00;;;;;;;;;;10460827;28;20230;-74
2023/11/30 20:55:07;;;;;;;63.03;30.17;;;;;;;;;;10442449;28;20016;-74
2023/11/30 21:00:08;;;;;;;71.38;31.05;;;;;;;;;;10460231;28;20539;-74
2023/11/30 21:05:09;;;;;;;64.30;31.15;;;;;;;;;;10459709;28;20058;-75
2023/11/30 21:10:13;;;;;;;64.65;29.05;;;;;;;;;;10459403;28;20233;-74
2023/11/30 21:15:14;;;;;;;63.55;29.38;;;;;;;;;;10459587;28;20017;-74
2023/11/30 21:20:14;;;;;;;67.25;33.90;;;;;;;;;;10459200;28;20025;-73
2023/11/30 21:25:15;;;;;;;63.00;30.50;;;;;;;;;;10459433;28;20219;-74
2023/11/30 21:30:15;;;;;;;64.25;29.52;;;;;;;;;;10459055;28;20243;-74
2023/11/30 21:35:15;;;;;;;58.90;26.20;;;;;;;;;;10458882;28;20033;-74
2023/11/30 21:40:15;;;;;;;61.90;29.35;;;;;;;;;;10459171;28;20080;-74
2023/11/30 21:45:16;;;;;;;61.17;29.10;;;;;;;;;;10458442;28;20298;-74
2023/11/30 21:50:17;;;;;;;57.20;27.25;;;;;;;;;;10458674;28;20222;-74
2023/11/30 21:55:18;;;;;;;59.90;28.30;;;;;;;;;;10458673;28;20020;-74
2023/11/30 22:00:18;;;;;;;56.00;25.92;;;;;;;;;;10458221;28;20020;-73
2023/11/30 22:05:18;;;;;;;56.92;27.23;;;;;;;;;;10458321;28;20020;-74
2023/11/30 22:10:18;;;;;;;61.38;28.92;;;;;;;;;;10457967;28;20013;-73
2023/11/30 22:15:19;;;;;;;57.95;27.88;;;;;;;;;;10458160;28;20235;-75
2023/11/30 22:20:20;;;;;;;62.22;28.70;;;;;;;;;;10457688;28;20017;-74
2023/11/30 22:25:22;;;;;;;58.67;27.50;;;;;;;;;;10465372;28;20029;-74
2023/11/30 22:30:22;;;;;;;52.28;28.08;;;;;;;;;;10466116;28;20440;-74
2023/11/30 22:35:23;;;;;;;63.20;29.50;;;;;;;;;;10465904;28;20028;-74
2023/11/30 22:40:23;;;;;;;66.55;30.73;;;;;;;;;;10465924;28;20052;-75
2023/11/30 22:45:23;;;;;;;60.20;31.23;;;;;;;;;;10465656;28;20323;-73
2023/11/30 22:50:24;;;;;;;57.00;28.33;;;;;;;;;;10465336;28;20319;-74
2023/11/30 22:55:24;;;;;;;60.50;29.00;;;;;;;;;;10465305;28;20029;-74
2023/11/30 23:00:24;;;;;;;67.45;30.42;;;;;;;;;;10464978;28;20062;-74
2023/11/30 23:05:24;;;;;;;68.67;30.27;;;;;;;;;;10464432;28;20013;-74
2023/11/30 23:10:25;;;;;;;58.33;28.05;;;;;;;;;;10446975;28;20016;-75
2023/11/30 23:15:26;;;;;;;57.72;29.45;;;;;;;;;;10464280;28;20017;-74
2023/11/30 23:20:26;;;;;;;62.40;28.80;;;;;;;;;;10463128;28;20326;-74
2023/11/30 23:25:26;;;;;;;62.42;28.40;;;;;;;;;;10463472;28;20033;-73
2023/11/30 23:30:27;;;;;;;57.40;28.88;;;;;;;;;;10463665;28;20088;-74
2023/11/30 23:35:27;;;;;;;55.38;27.77;;;;;;;;;;10462398;28;20238;-72
2023/11/30 23:40:28;;;;;;;53.33;27.20;;;;;;;;;;10463490;28;20039;-74
2023/11/30 23:45:28;;;;;;;57.92;27.40;;;;;;;;;;10463042;28;20025;-74
2023/11/30 23:50:28;;;;;;;58.22;26.02;;;;;;;;;;10463019;28;20322;-73
2023/11/30 23:55:28;;;;;;;55.28;26.15;;;;;;;;;;10462681;28;20180;-73
